Aviation Digital Data Service (ADDS)

Output produced by TAFs form (1541 UTC 10 February 2016)
found at http://www.aviationweather.gov/adds/tafs/
 
KABE 101412Z 1014/1112 26010KT P6SM BKN070 OVC090 
     FM101600 29012G20KT P6SM BKN060 
     FM102300 27007KT P6SM BKN050